createdAt,value
2019-05-01T00:01:22.184Z,98578.52
2019-05-01T00:04:03.081Z,98577.19
2019-05-01T00:06:42.757Z,98574.02
2019-05-01T00:09:16.095Z,98578.71
2019-05-01T00:11:48.289Z,98573.41
2019-05-01T00:14:20.421Z,98575.97
2019-05-01T00:16:52.514Z,98582.73
2019-05-01T00:19:24.472Z,98577.34
2019-05-01T00:21:56.383Z,98574.64
2019-05-01T00:24:28.374Z,98577.19
2019-05-01T00:27:00.485Z,98573.13
2019-05-01T00:29:32.441Z,98577.23
2019-05-01T00:32:04.245Z,98573.41
2019-05-01T00:34:36.193Z,98575.67
2019-05-01T00:37:08.474Z,98570.28
2019-05-01T00:39:40.282Z,98574.67
2019-05-01T00:42:12.078Z,98573.48
2019-05-01T00:44:43.985Z,98570.23
2019-05-01T00:47:15.771Z,98569.62
2019-05-01T00:49:47.790Z,98571.69
2019-05-01T00:52:19.662Z,98566.30
2019-05-01T00:54:53.371Z,98563.17
2019-05-01T00:57:33.051Z,98569.63
2019-05-01T01:00:09.078Z,98569.95
2019-05-01T01:02:42.588Z,98565.50
2019-05-01T01:05:14.543Z,98570.60
2019-05-01T01:07:46.428Z,98570.21
2019-05-01T01:10:18.471Z,98572.53
2019-05-01T01:12:50.293Z,98563.50
2019-05-01T01:15:22.088Z,98561.15
2019-05-01T01:17:53.993Z,98554.02
2019-05-01T01:20:25.893Z,98556.16
2019-05-01T01:22:57.857Z,98557.98
2019-05-01T01:25:29.663Z,98552.92
2019-05-01T01:28:01.714Z,98549.25
2019-05-01T01:30:33.945Z,98552.19
2019-05-01T01:33:07.667Z,98548.22
2019-05-01T01:35:39.640Z,98540.00
2019-05-01T01:38:11.793Z,98535.73
2019-05-01T01:40:44.305Z,98539.09
2019-05-01T01:43:34.554Z,98541.16
2019-05-01T01:46:07.451Z,98534.12
2019-05-01T01:48:39.563Z,98534.58
2019-05-01T01:51:11.540Z,98530.81
2019-05-01T01:53:43.661Z,98531.61
2019-05-01T01:56:17.022Z,98527.88
2019-05-01T01:58:49.719Z,98527.55
2019-05-01T02:01:38.293Z,98521.39
2019-05-01T02:04:19.062Z,98519.17
2019-05-01T02:06:51.739Z,98515.30
2019-05-01T02:09:23.866Z,98511.27
2019-05-01T02:11:56.032Z,98510.37
2019-05-01T02:14:28.117Z,98513.20
2019-05-01T02:16:59.977Z,98517.39
2019-05-01T02:19:31.863Z,98517.91
2019-05-01T02:22:03.795Z,98512.30
2019-05-01T02:24:35.655Z,98509.36
2019-05-01T02:27:11.834Z,98510.39
2019-05-01T02:29:45.719Z,98503.69
2019-05-01T02:32:18.919Z,98503.88
2019-05-01T02:34:53.517Z,98495.88
2019-05-01T02:37:27.883Z,98496.08
2019-05-01T02:40:04.104Z,98490.92
2019-05-01T02:42:38.391Z,98488.69
2019-05-01T02:45:11.306Z,98478.44
2019-05-01T02:47:45.376Z,98475.73
2019-05-01T02:50:17.941Z,98479.08
2019-05-01T02:52:50.259Z,98472.09
2019-05-01T02:55:30.056Z,98472.41
2019-05-01T02:58:02.557Z,98465.22
2019-05-01T03:00:34.759Z,98464.60
2019-05-01T03:03:06.781Z,98468.27
2019-05-01T03:05:38.666Z,98463.69
2019-05-01T03:08:11.324Z,98463.91
2019-05-01T03:10:43.283Z,98470.52
2019-05-01T03:13:15.142Z,98466.45
2019-05-01T03:15:47.460Z,98469.71
2019-05-01T03:18:35.935Z,98467.07
2019-05-01T03:21:13.765Z,98471.33
2019-05-01T03:24:05.133Z,98464.43
2019-05-01T03:26:37.467Z,98466.55
2019-05-01T03:29:10.134Z,98465.02
2019-05-01T03:31:42.621Z,98466.63
2019-05-01T03:34:14.902Z,98466.14
2019-05-01T03:36:47.436Z,98470.91
2019-05-01T03:39:19.765Z,98471.08
2019-05-01T03:41:52.070Z,98466.19
2019-05-01T03:44:24.679Z,98466.58
2019-05-01T03:46:56.859Z,98465.17
2019-05-01T03:49:29.251Z,98466.07
2019-05-01T03:52:01.221Z,98458.02
2019-05-01T03:54:33.838Z,98455.96
2019-05-01T03:57:05.874Z,98458.51
2019-05-01T03:59:38.618Z,98462.34
2019-05-01T04:02:33.625Z,98457.96
2019-05-01T04:05:03.206Z,98457.02
2019-05-01T04:07:36.680Z,98456.99
2019-05-01T04:10:09.978Z,98460.53
2019-05-01T04:12:43.224Z,98456.67
2019-05-01T04:15:15.133Z,98455.93
2019-05-01T04:17:54.890Z,98454.70
2019-05-01T04:20:27.356Z,98460.14
2019-05-01T04:22:59.491Z,98455.05
2019-05-01T04:25:31.607Z,98464.97
2019-05-01T04:28:21.266Z,98461.71
2019-05-01T04:31:11.987Z,98458.64
2019-05-01T04:33:46.176Z,98457.09
2019-05-01T04:36:23.195Z,98454.55
2019-05-01T04:38:55.391Z,98451.89
2019-05-01T04:41:27.765Z,98450.58
2019-05-01T04:44:00.390Z,98453.22
2019-05-01T04:46:32.814Z,98462.47
2019-05-01T04:49:05.417Z,98458.31
2019-05-01T04:51:37.758Z,98483.62
2019-05-01T04:54:10.643Z,98489.00
2019-05-01T04:56:43.697Z,98489.90
2019-05-01T04:59:17.159Z,98494.45
2019-05-01T05:02:03.490Z,98493.44
2019-05-01T05:04:35.813Z,98483.67
2019-05-01T05:07:08.206Z,98481.08
2019-05-01T05:09:42.235Z,98480.08
2019-05-01T05:12:25.695Z,98476.69
2019-05-01T05:15:06.717Z,98478.71
2019-05-01T05:17:38.644Z,98480.70
2019-05-01T05:20:10.676Z,98472.95
2019-05-01T05:22:42.789Z,98470.97
2019-05-01T05:25:15.375Z,98475.31
2019-05-01T05:27:49.195Z,98476.81
2019-05-01T05:30:22.747Z,98470.63
2019-05-01T05:32:57.201Z,98477.56
2019-05-01T05:35:30.635Z,98482.80
2019-05-01T05:38:10.773Z,98472.16
2019-05-01T05:40:44.491Z,98469.97
2019-05-01T05:43:17.463Z,98469.23
2019-05-01T05:45:50.137Z,98466.24
2019-05-01T05:48:22.215Z,98473.95
2019-05-01T05:51:03.569Z,98467.98
2019-05-01T05:53:40.487Z,98463.38
2019-05-01T05:56:20.231Z,98470.13
2019-05-01T05:58:57.017Z,98472.06
2019-05-01T06:01:31.189Z,98470.02
2019-05-01T06:04:21.529Z,98471.75
2019-05-01T06:07:14.750Z,98481.42
2019-05-01T06:09:49.943Z,98477.45
2019-05-01T06:12:24.031Z,98473.97
2019-05-01T06:15:06.390Z,98475.45
2019-05-01T06:17:41.795Z,98481.18
2019-05-01T06:20:20.794Z,98470.45
2019-05-01T06:23:04.845Z,98472.78
2019-05-01T06:25:44.508Z,98478.83
2019-05-01T06:28:19.905Z,98481.48
2019-05-01T06:30:54.145Z,98487.95
2019-05-01T06:33:26.313Z,98491.34
2019-05-01T06:35:58.413Z,98497.98
2019-05-01T06:38:31.581Z,98497.84
2019-05-01T06:41:05.157Z,98494.44
2019-05-01T06:43:43.709Z,98499.25
2019-05-01T06:46:16.611Z,98497.20
2019-05-01T06:49:06.962Z,98497.60
2019-05-01T06:51:43.381Z,98493.81
2019-05-01T07:44:11.238Z,98519.12
2019-05-01T07:47:04.796Z,98531.31
2019-05-01T07:50:00.796Z,98524.70
2019-05-01T07:52:37.153Z,98523.72
2019-05-01T07:55:13.021Z,98523.63
2019-05-01T07:57:46.544Z,98522.63
2019-05-01T08:00:30.320Z,98524.70
2019-05-01T08:03:07.296Z,98518.92
2019-05-01T08:05:40.927Z,98521.41
2019-05-01T08:10:25.092Z,98524.89
2019-05-01T08:12:55.558Z,98525.97
2019-05-01T08:15:32.322Z,98528.10
2019-05-01T08:18:16.003Z,98525.53
2019-05-01T08:20:50.477Z,98531.78
2019-05-01T08:23:21.712Z,98518.52
2019-05-01T08:25:53.552Z,98517.82
2019-05-01T08:28:27.712Z,98512.93
2019-05-01T08:31:02.455Z,98511.03
2019-05-01T08:33:52.874Z,98515.34
2019-05-01T08:36:24.804Z,98501.80
2019-05-01T08:38:57.291Z,98500.55
2019-05-01T08:41:31.896Z,98506.30
2019-05-01T08:44:05.293Z,98507.15
2019-05-01T08:46:37.362Z,98507.37
2019-05-01T08:49:11.420Z,98502.11
2019-05-01T08:51:43.036Z,98503.06
2019-05-01T08:54:15.137Z,98498.34
2019-05-01T08:56:47.226Z,98504.89
2019-05-01T08:59:23.423Z,98497.86
2019-05-01T09:02:08.489Z,98500.20
2019-05-01T09:04:30.656Z,98502.37
2019-05-01T09:07:02.337Z,98502.53
2019-05-01T09:09:34.305Z,98494.45
2019-05-01T09:12:06.955Z,98496.28
2019-05-01T09:14:40.078Z,98493.14
2019-05-01T09:17:12.314Z,98490.30
2019-05-01T09:19:44.444Z,98495.53
2019-05-01T09:22:16.851Z,98497.05
2019-05-01T09:24:49.654Z,98492.20
2019-05-01T09:27:29.386Z,98497.08
2019-05-01T09:30:04.616Z,98497.11
2019-05-01T09:32:36.698Z,98498.89
2019-05-01T09:35:15.421Z,98495.00
2019-05-01T09:37:42.700Z,98491.09
2019-05-01T09:40:15.724Z,98486.55
2019-05-01T09:42:47.640Z,98483.95
2019-05-01T09:45:19.953Z,98481.02
2019-05-01T09:47:52.065Z,98483.41
2019-05-01T09:50:25.762Z,98479.78
2019-05-01T09:53:01.042Z,98475.16
2019-05-01T09:55:35.604Z,98466.06
2019-05-01T09:58:07.974Z,98464.31
2019-05-01T10:00:40.029Z,98459.69
2019-05-01T10:03:13.140Z,98470.67
2019-05-01T10:05:45.878Z,98464.77
2019-05-01T10:08:17.656Z,98472.19
2019-05-01T10:12:48.896Z,98453.11
2019-05-01T10:15:19.989Z,98459.61
2019-05-01T10:19:41.209Z,98454.78
2019-05-01T10:22:12.290Z,98458.64
2019-05-01T10:24:43.343Z,98453.37
2019-05-01T10:27:17.218Z,98459.23
2019-05-01T10:30:03.161Z,98459.38
2019-05-01T10:32:36.147Z,98458.34
2019-05-01T10:35:14.224Z,98459.01
2019-05-01T10:37:45.943Z,98464.66
2019-05-01T10:40:17.525Z,98455.34
2019-05-01T10:42:48.633Z,98450.59
2019-05-01T10:45:19.857Z,98467.22
2019-05-01T10:47:51.034Z,98452.73
2019-05-01T10:50:21.981Z,98436.59
2019-05-01T10:52:53.496Z,98441.05
2019-05-01T10:55:26.463Z,98441.25
2019-05-01T10:57:57.575Z,98436.09
2019-05-01T11:00:28.671Z,98438.95
2019-05-01T11:03:00.100Z,98434.94
2019-05-01T11:05:31.195Z,98438.23
2019-05-01T11:08:02.317Z,98433.75
2019-05-01T11:10:36.729Z,98440.06
2019-05-01T11:13:08.037Z,98424.43
2019-05-01T11:15:39.181Z,98440.44
2019-05-01T11:18:10.287Z,98437.22
2019-05-01T11:20:41.490Z,98435.14
2019-05-01T11:23:12.707Z,98433.63
2019-05-01T11:25:44.730Z,98429.08
2019-05-01T11:28:16.072Z,98431.41
2019-05-01T11:30:47.048Z,98432.47
2019-05-01T11:33:35.963Z,98430.34
2019-05-01T11:36:15.829Z,98426.23
2019-05-01T11:38:51.536Z,98418.42
2019-05-01T11:41:27.291Z,98416.20
2019-05-01T11:43:58.422Z,98426.95
2019-05-01T11:46:29.445Z,98413.43
2019-05-01T11:49:00.558Z,98421.23
2019-05-01T11:51:31.656Z,98419.51
2019-05-01T11:54:02.736Z,98408.30
2019-05-01T11:56:33.644Z,98404.02
2019-05-01T11:59:04.903Z,98410.56
2019-05-01T12:01:35.972Z,98406.66
2019-05-01T12:04:07.191Z,98399.87
2019-05-01T12:06:38.312Z,98400.55
2019-05-01T12:09:09.570Z,98391.20
2019-05-01T12:11:42.177Z,98392.65
2019-05-01T12:14:13.234Z,98394.97
2019-05-01T12:16:52.520Z,98390.27
2019-05-01T12:19:30.836Z,98384.23
2019-05-01T12:22:02.003Z,98379.45
2019-05-01T12:24:33.125Z,98381.86
2019-05-01T12:27:04.219Z,98376.52
2019-05-01T12:29:35.218Z,98383.34
2019-05-01T12:32:06.408Z,98385.98
2019-05-01T12:34:37.439Z,98381.78
2019-05-01T12:37:26.357Z,98369.61
2019-05-01T12:39:57.346Z,98369.11
2019-05-01T12:42:30.009Z,98370.87
2019-05-01T12:45:01.492Z,98370.75
2019-05-01T12:47:32.228Z,98367.56
2019-05-01T12:50:03.840Z,98370.72
2019-05-01T12:52:46.767Z,98364.72
2019-05-01T12:55:31.502Z,98370.13
2019-05-01T12:58:02.788Z,98364.83
2019-05-01T13:00:56.697Z,98367.93
2019-05-01T13:03:27.577Z,98366.34
2019-05-01T13:05:59.330Z,98366.95
2019-05-01T13:08:30.416Z,98361.83
2019-05-01T13:11:01.761Z,98364.44
2019-05-01T13:13:32.800Z,98351.52
2019-05-01T13:16:03.997Z,98351.66
2019-05-01T13:18:35.169Z,98349.89
2019-05-01T13:21:06.248Z,98353.78
2019-05-01T13:23:37.164Z,98342.42
2019-05-01T13:26:10.187Z,98340.98
2019-05-01T13:28:42.985Z,98341.75
2019-05-01T13:31:15.826Z,98340.91
2019-05-01T13:33:47.077Z,98349.61
2019-05-01T13:36:18.165Z,98337.14
2019-05-01T13:38:49.208Z,98345.73
2019-05-01T13:41:20.292Z,98336.77
2019-05-01T13:43:51.874Z,98336.59
2019-05-01T13:46:23.110Z,98329.38
2019-05-01T13:48:54.106Z,98330.73
2019-05-01T13:51:25.270Z,98326.89
2019-05-01T13:53:56.362Z,98336.26
2019-05-01T13:56:27.562Z,98322.31
2019-05-01T13:58:58.486Z,98324.73
2019-05-01T14:01:29.547Z,98321.88
2019-05-01T14:04:00.537Z,98323.53
2019-05-01T14:06:33.043Z,98322.40
2019-05-01T14:09:05.847Z,98317.22
2019-05-01T14:11:36.833Z,98314.90
2019-05-01T14:14:07.790Z,98324.75
2019-05-01T14:16:38.712Z,98316.84
2019-05-01T14:19:09.743Z,98323.70
2019-05-01T14:21:42.320Z,98320.02
2019-05-01T14:24:18.000Z,98315.13
2019-05-01T14:26:48.924Z,98314.67
2019-05-01T14:29:19.894Z,98310.70
2019-05-01T14:31:50.892Z,98312.98
2019-05-01T14:34:21.875Z,98314.27
2019-05-01T14:36:52.932Z,98323.59
2019-05-01T14:39:23.961Z,98318.23
2019-05-01T14:41:55.332Z,98315.81
2019-05-01T14:44:36.209Z,98309.53
2019-05-01T14:46:59.359Z,98309.98
2019-05-01T14:49:30.290Z,98305.75
2019-05-01T14:52:01.312Z,98309.37
2019-05-01T14:54:32.294Z,98311.69
2019-05-01T14:57:03.590Z,98310.52
2019-05-01T14:59:34.836Z,98312.16
2019-05-01T15:02:06.039Z,98310.34
2019-05-01T15:04:37.108Z,98313.76
2019-05-01T15:07:11.139Z,98311.95
2019-05-01T15:09:40.947Z,98313.45
2019-05-01T15:12:11.852Z,98318.59
2019-05-01T15:14:59.194Z,98314.08
2019-05-01T15:17:31.758Z,98302.97
2019-05-01T15:20:04.372Z,98311.98
2019-05-01T15:22:35.534Z,98304.77
2019-05-01T15:25:07.930Z,98307.52
2019-05-01T15:27:38.975Z,98309.11
2019-05-01T15:30:12.325Z,98304.03
2019-05-01T15:32:43.350Z,98297.70
2019-05-01T15:35:14.542Z,98302.11
2019-05-01T15:37:55.981Z,98300.77
2019-05-01T15:40:20.171Z,98293.80
2019-05-01T15:42:55.201Z,98294.36
2019-05-01T15:45:26.332Z,98285.79
2019-05-01T15:47:57.346Z,98290.08
2019-05-01T15:50:28.355Z,98294.91
2019-05-01T15:52:59.285Z,98288.69
2019-05-01T15:55:30.217Z,98281.34
2019-05-01T15:58:01.207Z,98285.72
2019-05-01T16:00:32.159Z,98289.41
2019-05-01T16:03:03.311Z,98290.08
2019-05-01T16:05:34.503Z,98289.02
2019-05-01T16:08:09.952Z,98286.48
2019-05-01T16:10:53.169Z,98289.45
2019-05-01T16:13:24.409Z,98287.22
2019-05-01T16:15:55.470Z,98295.50
2019-05-01T16:18:26.447Z,98295.27
2019-05-01T16:20:57.299Z,98296.07
2019-05-01T16:23:28.352Z,98288.25
2019-05-01T16:25:59.341Z,98282.91
2019-05-01T16:28:30.221Z,98286.94
2019-05-01T16:31:01.203Z,98284.27
2019-05-01T16:33:33.126Z,98282.12
2019-05-01T16:36:04.249Z,98284.81
2019-05-01T16:38:47.393Z,98288.02
2019-05-01T16:41:18.429Z,98290.95
2019-05-01T16:43:49.433Z,98290.72
2019-05-01T16:46:20.287Z,98283.97
2019-05-01T16:48:51.411Z,98289.02
2019-05-01T16:51:22.433Z,98280.78
2019-05-01T16:53:53.555Z,98291.51
2019-05-01T16:56:24.469Z,98285.59
2019-05-01T16:58:55.452Z,98289.05
2019-05-01T17:01:41.575Z,98290.73
2019-05-01T17:04:29.391Z,98294.19
2019-05-01T17:07:10.947Z,98297.93
2019-05-01T17:09:41.687Z,98288.02
2019-05-01T17:12:13.774Z,98290.42
2019-05-01T17:14:46.445Z,98290.93
2019-05-01T17:17:19.010Z,98292.51
2019-05-01T17:19:49.938Z,98290.69
2019-05-01T17:22:20.923Z,98292.50
2019-05-01T17:24:52.651Z,98290.36
2019-05-01T17:27:23.656Z,98297.03
2019-05-01T17:29:54.640Z,98293.80
2019-05-01T17:32:25.654Z,98297.12
2019-05-01T17:34:56.657Z,98301.68
2019-05-01T17:37:27.558Z,98303.59
2019-05-01T17:39:58.606Z,98309.22
2019-05-01T17:42:32.952Z,98305.37
2019-05-01T17:45:02.492Z,98300.72
2019-05-01T17:47:33.599Z,98308.96
2019-05-01T17:50:05.295Z,98308.49
2019-05-01T17:52:36.646Z,98304.07
2019-05-01T17:55:08.994Z,98309.86
2019-05-01T17:57:42.435Z,98313.89
2019-05-01T18:00:28.355Z,98313.11
2019-05-01T18:03:03.741Z,98309.30
2019-05-01T18:05:34.532Z,98312.94
2019-05-01T18:08:05.489Z,98317.83
2019-05-01T18:10:38.610Z,98315.91
2019-05-01T18:13:09.366Z,98318.63
2019-05-01T18:15:40.363Z,98321.80
2019-05-01T18:18:15.091Z,98321.33
2019-05-01T18:20:44.467Z,98324.73
2019-05-01T18:23:24.443Z,98329.63
2019-05-01T18:26:08.809Z,98326.07
2019-05-01T18:28:53.365Z,98333.14
2019-05-01T18:31:27.891Z,98329.19
2019-05-01T18:34:02.578Z,98329.48
2019-05-01T18:36:34.018Z,98336.60
2019-05-01T18:39:16.788Z,98342.92
2019-05-01T18:41:55.708Z,98350.09
2019-05-01T18:44:26.709Z,98354.98
2019-05-01T18:46:57.910Z,98352.89
2019-05-01T18:49:29.017Z,98350.15
2019-05-01T18:52:00.000Z,98348.66
2019-05-01T18:54:35.028Z,98354.87
2019-05-01T18:57:04.076Z,98363.45
2019-05-01T18:59:35.232Z,98362.77
2019-05-01T19:02:06.426Z,98366.99
2019-05-01T19:04:37.488Z,98363.64
2019-05-01T19:07:08.813Z,98366.53
2019-05-01T19:09:40.358Z,98362.65
2019-05-01T19:12:13.123Z,98363.75
2019-05-01T19:14:44.352Z,98358.77
2019-05-01T19:17:16.184Z,98366.80
2019-05-01T19:19:47.119Z,98365.13
2019-05-01T19:22:18.413Z,98360.10
2019-05-01T19:24:49.799Z,98361.39
2019-05-01T19:27:24.254Z,98364.41
2019-05-01T19:29:54.415Z,98365.26
2019-05-01T19:32:26.084Z,98364.69
2019-05-01T19:34:57.234Z,98367.31
2019-05-01T19:37:30.990Z,98364.45
2019-05-01T19:40:01.537Z,98358.16
2019-05-01T19:42:32.712Z,98363.30
2019-05-01T19:45:04.304Z,98365.97
2019-05-01T19:47:35.382Z,98372.27
2019-05-01T19:50:11.492Z,98367.35
2019-05-01T19:52:44.039Z,98366.64
2019-05-01T19:55:15.260Z,98368.28
2019-05-01T19:57:46.313Z,98370.10
2019-05-01T20:00:22.215Z,98369.30
2019-05-01T20:02:54.236Z,98377.62
2019-05-01T20:05:27.106Z,98372.77
2019-05-01T20:07:58.627Z,98370.95
2019-05-01T20:10:29.639Z,98377.62
2019-05-01T20:13:00.761Z,98382.27
2019-05-01T20:15:32.133Z,98383.38
2019-05-01T20:18:03.112Z,98380.63
2019-05-01T20:20:34.042Z,98384.59
2019-05-01T20:23:05.413Z,98391.05
2019-05-01T20:25:36.392Z,98393.65
2019-05-01T20:28:07.485Z,98403.89
2019-05-01T20:30:38.667Z,98413.69
2019-05-01T20:33:09.618Z,98414.38
2019-05-01T20:35:40.790Z,98411.70
2019-05-01T20:38:13.456Z,98415.61
2019-05-01T20:40:44.454Z,98418.45
2019-05-01T20:43:15.441Z,98423.23
2019-05-01T20:45:49.366Z,98423.92
2019-05-01T20:48:23.624Z,98428.91
2019-05-01T20:50:51.841Z,98413.83
2019-05-01T20:53:22.850Z,98410.04
2019-05-01T20:55:55.710Z,98407.50
2019-05-01T20:58:26.844Z,98403.83
2019-05-01T21:00:59.578Z,98402.31
2019-05-01T21:03:31.205Z,98400.64
2019-05-01T21:06:07.708Z,98394.92
2019-05-01T21:08:45.196Z,98395.23
2019-05-01T21:11:32.903Z,98394.87
2019-05-01T21:14:16.055Z,98396.21
2019-05-01T21:16:37.985Z,98384.70
2019-05-01T21:19:09.531Z,98388.03
2019-05-01T21:21:43.556Z,98388.22
2019-05-01T21:24:14.732Z,98392.95
2019-05-01T21:26:45.600Z,98389.42
2019-05-01T21:29:16.604Z,98392.55
2019-05-01T21:31:48.352Z,98387.05
2019-05-01T21:34:19.403Z,98387.23
2019-05-01T21:36:52.526Z,98389.80
2019-05-01T21:39:26.405Z,98393.78
2019-05-01T21:41:56.115Z,98385.73
2019-05-01T21:44:27.043Z,98377.03
2019-05-01T21:46:58.050Z,98377.14
2019-05-01T21:49:29.220Z,98371.83
2019-05-01T21:52:03.577Z,98373.56
2019-05-01T21:54:34.968Z,98371.84
2019-05-01T21:57:06.211Z,98368.66
2019-05-01T21:59:39.808Z,98376.12
2019-05-01T22:02:11.925Z,98371.95
2019-05-01T22:04:43.027Z,98374.61
2019-05-01T22:07:14.509Z,98378.20
2019-05-01T22:09:50.345Z,98372.17
2019-05-01T22:12:18.606Z,98372.58
2019-05-01T22:14:54.033Z,98375.70
2019-05-01T22:17:43.040Z,98374.48
2019-05-01T22:20:15.908Z,98364.38
2019-05-01T22:22:48.643Z,98367.92
2019-05-01T22:25:24.093Z,98355.63
2019-05-01T22:27:56.876Z,98353.42
2019-05-01T22:30:42.413Z,98350.38
2019-05-01T22:33:11.491Z,98355.66
2019-05-01T22:35:53.844Z,98346.69
2019-05-01T22:38:24.859Z,98345.23
2019-05-01T22:41:06.181Z,98339.69
2019-05-01T22:43:30.577Z,98335.53
2019-05-01T22:46:03.348Z,98332.83
2019-05-01T22:48:34.614Z,98327.22
2019-05-01T22:51:07.755Z,98319.66
2019-05-01T22:53:38.599Z,98328.55
2019-05-01T22:56:10.404Z,98325.94
2019-05-01T22:58:41.368Z,98321.69
2019-05-01T23:01:13.384Z,98319.03
2019-05-01T23:03:47.093Z,98316.11
2019-05-01T23:06:18.240Z,98316.28
2019-05-01T23:08:49.413Z,98316.91
2019-05-01T23:11:21.166Z,98318.38
2019-05-01T23:13:52.149Z,98310.52
2019-05-01T23:16:28.827Z,98315.27
2019-05-01T23:18:57.820Z,98307.91
2019-05-01T23:21:28.983Z,98298.06
2019-05-01T23:24:01.979Z,98301.45
2019-05-01T23:26:32.907Z,98303.33
2019-05-01T23:29:04.131Z,98298.59
2019-05-01T23:31:35.306Z,98300.50
2019-05-01T23:34:06.416Z,98298.28
2019-05-01T23:36:37.705Z,98302.33
2019-05-01T23:39:09.298Z,98294.19
2019-05-01T23:41:47.079Z,98294.74
2019-05-01T23:44:14.885Z,98295.77
2019-05-01T23:46:46.039Z,98294.27
2019-05-01T23:49:17.009Z,98291.45
2019-05-01T23:51:48.186Z,98296.47
2019-05-01T23:54:19.726Z,98294.28
2019-05-01T23:56:50.880Z,98301.66
2019-05-01T23:59:21.948Z,98301.56
